createdAt,value
2023-11-03T00:01:16.529Z,73.30
2023-11-03T00:03:43.452Z,73.03
2023-11-03T00:06:10.329Z,72.88
2023-11-03T00:08:37.077Z,72.68
2023-11-03T00:11:04.533Z,72.78
2023-11-03T00:13:32.201Z,72.55
2023-11-03T00:15:58.982Z,72.47
2023-11-03T00:18:25.822Z,73.04
2023-11-03T00:20:52.546Z,73.27
2023-11-03T00:23:19.293Z,73.51
2023-11-03T00:25:46.037Z,73.58
2023-11-03T00:28:12.792Z,73.71
2023-11-03T00:30:39.568Z,73.75
2023-11-03T00:33:06.829Z,73.88
2023-11-03T00:35:35.139Z,73.89
2023-11-03T00:38:01.952Z,73.98
2023-11-03T00:40:29.113Z,74.19
2023-11-03T00:42:56.116Z,74.46
2023-11-03T00:45:22.914Z,74.54
2023-11-03T00:47:50.038Z,74.55
2023-11-03T00:50:17.028Z,74.53
2023-11-03T00:52:43.880Z,74.36
2023-11-03T00:55:10.671Z,74.59
2023-11-03T00:57:37.460Z,74.95
2023-11-03T01:00:05.061Z,75.01
2023-11-03T01:02:31.829Z,75.10
2023-11-03T01:04:58.635Z,75.21
2023-11-03T01:07:25.511Z,75.53
2023-11-03T01:09:52.248Z,75.68
2023-11-03T01:12:19.191Z,76.10
2023-11-03T01:14:45.960Z,76.21
2023-11-03T01:17:13.144Z,76.68
2023-11-03T01:19:39.831Z,76.56
2023-11-03T01:22:06.726Z,77.11
2023-11-03T01:24:33.552Z,77.56
2023-11-03T01:27:00.236Z,78.01
2023-11-03T01:29:26.966Z,78.46
2023-11-03T01:31:53.702Z,78.39
2023-11-03T01:34:20.451Z,78.65
2023-11-03T01:36:47.211Z,78.81
2023-11-03T01:39:14.349Z,79.10
2023-11-03T01:41:40.999Z,79.07
2023-11-03T01:44:09.408Z,79.54
2023-11-03T01:46:40.608Z,80.37
2023-11-03T01:49:09.056Z,80.32
2023-11-03T01:51:36.765Z,80.93
2023-11-03T01:54:05.327Z,81.90
2023-11-03T01:56:33.895Z,81.73
2023-11-03T01:59:06.111Z,82.23
2023-11-03T02:01:33.625Z,82.71
2023-11-03T02:04:00.569Z,83.07
2023-11-03T02:06:27.640Z,83.65
2023-11-03T02:08:55.065Z,83.18
2023-11-03T02:11:29.431Z,83.22
2023-11-03T02:13:57.215Z,83.24
2023-11-03T02:16:24.831Z,82.90
2023-11-03T02:18:51.781Z,82.67
2023-11-03T02:21:19.003Z,83.30
2023-11-03T02:23:45.771Z,82.92
2023-11-03T02:26:12.402Z,82.95
2023-11-03T02:28:39.360Z,82.84
2023-11-03T02:31:06.272Z,83.00
2023-11-03T02:33:33.054Z,82.87
2023-11-03T02:35:59.896Z,82.63
2023-11-03T02:38:26.659Z,82.40
2023-11-03T02:40:53.394Z,82.44
2023-11-03T02:43:20.176Z,82.29
2023-11-03T02:45:46.914Z,82.12
2023-11-03T02:48:13.661Z,81.99
2023-11-03T02:50:40.612Z,81.74
2023-11-03T02:53:07.340Z,81.60
2023-11-03T02:55:34.099Z,81.47
2023-11-03T02:58:00.864Z,81.48
2023-11-03T03:00:27.716Z,81.45
2023-11-03T03:02:54.873Z,81.26
2023-11-03T03:05:21.684Z,81.18
2023-11-03T03:07:48.493Z,81.10
2023-11-03T03:10:15.708Z,80.99
2023-11-03T03:12:42.685Z,81.17
2023-11-03T03:15:10.880Z,81.03
2023-11-03T03:17:37.533Z,80.90
2023-11-03T03:20:04.944Z,81.10
2023-11-03T03:22:31.576Z,80.94
2023-11-03T03:24:58.378Z,81.15
2023-11-03T03:27:25.221Z,81.32
2023-11-03T03:29:52.250Z,81.35
2023-11-03T03:32:19.141Z,81.36
2023-11-03T03:34:46.049Z,81.64
2023-11-03T03:37:12.763Z,81.82
2023-11-03T03:39:39.778Z,81.84
2023-11-03T03:42:07.380Z,82.08
2023-11-03T03:44:34.449Z,81.91
2023-11-03T03:47:01.303Z,81.79
2023-11-03T03:49:28.040Z,81.39
2023-11-03T03:51:54.801Z,81.33
2023-11-03T03:54:21.534Z,81.19
2023-11-03T03:56:48.384Z,81.14
2023-11-03T03:59:15.434Z,81.12
2023-11-03T04:01:45.554Z,81.03
2023-11-03T04:04:12.353Z,80.37
2023-11-03T04:06:39.291Z,80.30
2023-11-03T04:09:06.643Z,80.18
2023-11-03T04:11:33.584Z,79.95
2023-11-03T04:14:00.416Z,79.60
2023-11-03T04:16:37.403Z,79.57
2023-11-03T04:19:05.064Z,79.58
2023-11-03T04:21:31.990Z,79.63
2023-11-03T04:23:58.772Z,79.71
2023-11-03T04:26:26.235Z,79.76
2023-11-03T04:28:53.712Z,79.72
2023-11-03T04:31:20.632Z,79.57
2023-11-03T04:33:47.880Z,79.59
2023-11-03T04:36:14.762Z,79.65
2023-11-03T04:38:41.922Z,79.61
2023-11-03T04:41:08.674Z,79.63
2023-11-03T04:43:35.324Z,79.66
2023-11-03T04:46:02.515Z,79.82
2023-11-03T04:48:29.237Z,79.83
2023-11-03T04:50:55.979Z,79.63
2023-11-03T04:53:22.727Z,79.41
2023-11-03T04:55:49.462Z,79.37
2023-11-03T04:58:17.485Z,79.32
2023-11-03T05:00:44.626Z,79.37
2023-11-03T05:03:11.550Z,79.30
2023-11-03T05:05:38.859Z,79.29
2023-11-03T05:08:05.858Z,79.33
2023-11-03T05:10:32.603Z,79.35
2023-11-03T05:12:59.266Z,79.43
2023-11-03T05:15:25.984Z,79.52
2023-11-03T05:17:52.795Z,79.57
2023-11-03T05:20:20.922Z,79.59
2023-11-03T05:22:48.001Z,79.75
2023-11-03T05:25:15.142Z,79.95
2023-11-03T05:27:42.255Z,80.01
2023-11-03T05:30:09.770Z,80.02
2023-11-03T05:32:37.250Z,80.06
2023-11-03T05:35:04.257Z,80.04
2023-11-03T05:37:31.115Z,80.09
2023-11-03T05:39:57.894Z,79.93
2023-11-03T05:42:24.900Z,79.80
2023-11-03T05:44:51.546Z,79.78
2023-11-03T05:47:18.291Z,79.80
2023-11-03T05:49:45.090Z,79.75
2023-11-03T05:52:11.985Z,79.43
2023-11-03T05:54:38.840Z,79.29
2023-11-03T05:57:05.801Z,78.97
2023-11-03T05:59:32.541Z,78.91
2023-11-03T06:01:59.188Z,78.78
2023-11-03T06:04:25.857Z,78.77
2023-11-03T06:06:52.719Z,78.72
2023-11-03T06:09:19.424Z,78.71
2023-11-03T06:11:46.260Z,78.65
2023-11-03T06:14:13.243Z,78.60
2023-11-03T06:16:39.873Z,78.59
2023-11-03T06:19:07.016Z,78.40
2023-11-03T06:21:33.902Z,78.54
2023-11-03T06:24:00.631Z,78.49
2023-11-03T06:26:27.279Z,78.56
2023-11-03T06:28:54.240Z,78.53
2023-11-03T06:31:21.095Z,78.43
2023-11-03T06:33:48.130Z,78.38
2023-11-03T06:36:15.181Z,78.23
2023-11-03T06:38:42.164Z,78.15
2023-11-03T06:41:11.495Z,78.11
2023-11-03T06:43:38.625Z,78.07
2023-11-03T06:46:05.407Z,77.79
2023-11-03T06:48:32.347Z,77.67
2023-11-03T06:50:59.233Z,77.63
2023-11-03T06:53:26.222Z,77.22
2023-11-03T06:55:52.898Z,77.20
2023-11-03T06:58:19.688Z,77.03
2023-11-03T07:00:46.397Z,76.89
2023-11-03T07:03:13.330Z,76.61
2023-11-03T07:05:40.229Z,76.13
2023-11-03T07:08:07.430Z,76.24
2023-11-03T07:10:34.176Z,76.02
2023-11-03T07:13:01.167Z,76.02
2023-11-03T07:15:28.016Z,76.18
2023-11-03T07:17:54.730Z,76.13
2023-11-03T07:20:21.503Z,76.32
2023-11-03T07:22:48.157Z,76.53
2023-11-03T07:25:14.931Z,76.24
2023-11-03T07:27:41.813Z,75.89
2023-11-03T07:30:09.452Z,75.40
2023-11-03T07:32:36.409Z,75.38
2023-11-03T07:35:03.410Z,75.28
2023-11-03T07:37:30.138Z,74.80
2023-11-03T07:39:56.966Z,74.62
2023-11-03T07:42:23.933Z,74.41
2023-11-03T07:44:50.707Z,73.81
2023-11-03T07:47:17.468Z,73.81
2023-11-03T07:49:44.396Z,73.84
2023-11-03T07:52:11.259Z,73.59
2023-11-03T07:54:38.297Z,73.40
2023-11-03T07:57:05.499Z,72.97
2023-11-03T07:59:32.405Z,73.19
2023-11-03T08:01:59.254Z,72.89
2023-11-03T08:04:25.971Z,72.41
2023-11-03T08:06:52.956Z,72.21
2023-11-03T08:09:19.523Z,71.95
2023-11-03T08:11:46.088Z,71.82
2023-11-03T08:14:12.783Z,72.01
2023-11-03T08:16:45.528Z,72.55
2023-11-03T08:19:13.078Z,72.21
2023-11-03T08:21:40.267Z,71.77
2023-11-03T08:24:07.221Z,71.73
2023-11-03T08:26:33.941Z,71.82
2023-11-03T08:29:00.598Z,71.94
2023-11-03T08:31:28.023Z,71.94
2023-11-03T08:33:54.793Z,71.30
2023-11-03T08:36:21.782Z,70.78
2023-11-03T08:38:49.051Z,70.39
2023-11-03T08:41:15.804Z,70.15
2023-11-03T08:43:45.114Z,70.08
2023-11-03T08:46:11.882Z,69.77
2023-11-03T08:48:41.749Z,69.96
2023-11-03T08:51:10.230Z,69.22
2023-11-03T08:53:37.331Z,69.04
2023-11-03T08:56:04.337Z,69.13
2023-11-03T08:58:31.015Z,68.68
2023-11-03T09:01:01.042Z,68.20
2023-11-03T09:03:29.924Z,68.26
2023-11-03T09:05:56.989Z,68.24
2023-11-03T09:08:23.834Z,68.40
2023-11-03T09:10:50.696Z,68.51
2023-11-03T09:13:23.620Z,68.31
2023-11-03T09:15:52.249Z,68.56
2023-11-03T09:18:20.846Z,68.65
2023-11-03T09:20:47.818Z,68.86
2023-11-03T09:23:14.928Z,68.63
2023-11-03T09:25:41.997Z,68.44
2023-11-03T09:28:08.942Z,68.47
2023-11-03T09:30:35.852Z,68.54
2023-11-03T09:33:03.206Z,68.19
2023-11-03T09:35:30.140Z,68.33
2023-11-03T09:37:56.763Z,68.51
2023-11-03T09:40:23.934Z,68.84
2023-11-03T09:42:51.488Z,68.70
2023-11-03T09:45:22.393Z,68.49
2023-11-03T09:47:53.158Z,68.45
2023-11-03T09:50:22.684Z,68.94
2023-11-03T09:52:52.822Z,68.98
2023-11-03T09:55:21.578Z,69.16
2023-11-03T09:57:49.860Z,68.85
2023-11-03T10:00:17.527Z,68.54
2023-11-03T10:02:44.799Z,68.74
2023-11-03T10:05:18.882Z,68.78
2023-11-03T10:08:04.059Z,68.71
2023-11-03T10:10:32.952Z,69.15
2023-11-03T10:12:59.782Z,68.76
2023-11-03T10:15:27.411Z,68.60
2023-11-03T10:17:55.279Z,68.44
2023-11-03T10:20:22.433Z,68.29
2023-11-03T10:22:49.868Z,68.95
2023-11-03T10:25:17.613Z,69.16
2023-11-03T10:27:49.198Z,69.76
2023-11-03T10:30:17.701Z,69.66
2023-11-03T10:32:45.973Z,70.25
2023-11-03T10:35:14.994Z,70.87
2023-11-03T10:37:43.139Z,70.86
2023-11-03T10:40:11.229Z,70.72
2023-11-03T10:42:47.984Z,70.02
2023-11-03T10:45:16.010Z,69.06
2023-11-03T10:47:53.812Z,68.71
2023-11-03T10:50:22.550Z,68.33
2023-11-03T10:53:14.428Z,68.14
2023-11-03T10:56:22.482Z,68.23
2023-11-03T10:58:55.269Z,68.14
2023-11-03T11:02:00.536Z,68.27
2023-11-03T11:04:34.634Z,68.39
2023-11-03T11:07:09.057Z,68.21
2023-11-03T11:09:47.372Z,68.51
2023-11-03T11:12:15.194Z,68.51
2023-11-03T11:14:43.822Z,68.60
2023-11-03T11:17:16.708Z,68.73
2023-11-03T11:19:46.518Z,68.79
2023-11-03T11:22:20.775Z,68.93
2023-11-03T11:24:48.172Z,69.10
2023-11-03T11:27:16.737Z,69.22
2023-11-03T11:29:43.833Z,69.35
2023-11-03T11:32:12.477Z,69.37
2023-11-03T11:34:42.162Z,69.62
2023-11-03T11:37:29.448Z,69.86
2023-11-03T11:39:58.550Z,69.93
2023-11-03T11:42:30.750Z,70.18
2023-11-03T11:44:58.295Z,70.26
2023-11-03T11:47:26.770Z,70.52
2023-11-03T11:49:55.140Z,70.84
2023-11-03T11:52:28.741Z,71.06
2023-11-03T11:54:57.727Z,71.57
2023-11-03T11:57:27.667Z,72.06
2023-11-03T11:59:56.061Z,72.82
2023-11-03T12:02:24.215Z,73.77
2023-11-03T12:04:52.243Z,74.11
2023-11-03T12:07:23.116Z,74.61
2023-11-03T12:09:54.484Z,74.73
2023-11-03T12:12:25.945Z,75.55
2023-11-03T12:14:54.008Z,75.74
2023-11-03T12:17:21.569Z,76.27
2023-11-03T12:19:49.713Z,76.69
2023-11-03T12:22:26.576Z,77.24
2023-11-03T12:24:56.857Z,78.16
2023-11-03T12:27:25.294Z,78.35
2023-11-03T12:29:52.619Z,78.17
2023-11-03T12:32:19.665Z,78.89
2023-11-03T12:34:46.694Z,78.65
2023-11-03T12:37:14.685Z,78.30
2023-11-03T12:39:55.147Z,78.06
2023-11-03T12:42:23.736Z,77.94
2023-11-03T12:44:58.533Z,77.55
2023-11-03T12:47:46.000Z,77.07
2023-11-03T12:50:20.281Z,76.94
2023-11-03T12:53:02.774Z,76.46
2023-11-03T12:55:31.811Z,76.60
2023-11-03T12:58:00.192Z,76.62
2023-11-03T13:00:28.627Z,76.94
2023-11-03T13:02:55.621Z,77.24
2023-11-03T13:05:23.984Z,77.55
2023-11-03T13:07:53.013Z,78.18
2023-11-03T13:10:20.867Z,78.16
2023-11-03T13:12:48.318Z,78.74
2023-11-03T13:15:15.136Z,78.81
2023-11-03T13:17:42.527Z,79.23
2023-11-03T13:20:11.585Z,79.68
2023-11-03T13:22:38.651Z,80.34
2023-11-03T13:25:05.844Z,80.37
2023-11-03T13:27:32.450Z,80.16
2023-11-03T13:29:59.272Z,80.33
2023-11-03T13:32:26.043Z,80.67
2023-11-03T13:34:52.744Z,80.85
2023-11-03T13:37:19.753Z,80.83
2023-11-03T13:39:46.496Z,81.42
2023-11-03T13:42:13.436Z,81.22
2023-11-03T13:44:41.570Z,81.18
2023-11-03T13:47:08.497Z,81.64
2023-11-03T13:49:36.084Z,81.55
2023-11-03T13:52:03.315Z,81.60
2023-11-03T13:54:30.061Z,81.67
2023-11-03T13:56:56.841Z,82.02
2023-11-03T13:59:23.572Z,81.89
2023-11-03T14:01:50.616Z,81.93
2023-11-03T14:04:17.694Z,82.76
2023-11-03T14:06:44.424Z,83.90
2023-11-03T14:09:16.593Z,84.27
2023-11-03T14:11:44.251Z,85.15
2023-11-03T14:14:11.022Z,85.46
2023-11-03T14:16:37.910Z,86.23
2023-11-03T14:19:04.780Z,87.40
2023-11-03T14:21:31.856Z,87.41
2023-11-03T14:23:58.594Z,87.96
2023-11-03T14:26:25.584Z,90.44
2023-11-03T14:28:54.689Z,89.88
2023-11-03T14:31:21.920Z,90.87
2023-11-03T14:33:48.965Z,90.04
2023-11-03T14:36:15.804Z,91.50
2023-11-03T14:38:42.658Z,92.03
2023-11-03T14:41:09.559Z,93.08
2023-11-03T14:43:36.567Z,94.06
2023-11-03T14:46:03.767Z,93.33
2023-11-03T14:48:30.700Z,94.51
2023-11-03T14:50:58.277Z,94.52
2023-11-03T14:53:26.013Z,95.44
2023-11-03T14:55:52.973Z,94.86
2023-11-03T14:58:20.401Z,93.70
2023-11-03T15:00:47.271Z,93.79
2023-11-03T15:03:14.573Z,92.85
2023-11-03T15:05:41.619Z,92.76
2023-11-03T15:08:08.913Z,92.41
2023-11-03T15:10:39.427Z,91.97
2023-11-03T15:13:06.727Z,91.87
2023-11-03T15:15:33.942Z,91.69
2023-11-03T15:18:02.341Z,91.41
2023-11-03T15:20:29.352Z,91.35
2023-11-03T15:22:58.008Z,91.36
2023-11-03T15:25:25.239Z,91.28
2023-11-03T15:27:52.327Z,91.12
2023-11-03T15:30:20.397Z,90.92
2023-11-03T15:32:48.633Z,90.82
2023-11-03T15:35:17.231Z,90.76
2023-11-03T15:37:45.199Z,90.53
2023-11-03T15:40:14.101Z,90.32
2023-11-03T15:42:41.134Z,90.30
2023-11-03T15:45:09.081Z,90.29
2023-11-03T15:47:35.885Z,90.19
2023-11-03T15:50:03.054Z,89.94
2023-11-03T15:52:30.129Z,89.38
2023-11-03T15:54:57.100Z,88.81
2023-11-03T15:57:26.398Z,88.38
2023-11-03T15:59:53.766Z,88.27
2023-11-03T16:02:20.649Z,87.84
2023-11-03T16:04:48.338Z,87.52
2023-11-03T16:07:15.669Z,86.91
2023-11-03T16:09:42.941Z,86.34
2023-11-03T16:12:10.414Z,86.48
2023-11-03T16:14:37.741Z,85.71
2023-11-03T16:17:05.543Z,85.78
2023-11-03T16:19:33.427Z,85.41
2023-11-03T16:22:00.890Z,85.67
2023-11-03T16:24:28.037Z,85.28
2023-11-03T16:26:55.026Z,85.19
2023-11-03T16:29:25.030Z,85.04
2023-11-03T16:31:52.674Z,84.62
2023-11-03T16:34:19.954Z,84.06
2023-11-03T16:36:46.841Z,84.37
2023-11-03T16:39:14.256Z,84.30
2023-11-03T16:41:40.937Z,84.38
2023-11-03T16:44:10.100Z,84.60
2023-11-03T16:46:37.824Z,84.75
2023-11-03T16:49:06.079Z,84.76
2023-11-03T16:51:33.426Z,84.98
2023-11-03T16:54:00.880Z,85.27
2023-11-03T16:56:31.088Z,85.30
2023-11-03T16:58:58.495Z,85.28
2023-11-03T17:01:25.467Z,84.90
2023-11-03T17:03:52.654Z,84.74
2023-11-03T17:06:19.590Z,84.73
2023-11-03T17:08:47.149Z,84.84
2023-11-03T17:11:14.226Z,85.01
2023-11-03T17:13:44.651Z,85.75
2023-11-03T17:16:11.845Z,86.44
2023-11-03T17:18:39.729Z,86.75
2023-11-03T17:21:06.506Z,87.16
2023-11-03T17:23:34.527Z,88.08
2023-11-03T17:26:03.996Z,88.02
2023-11-03T17:28:30.685Z,88.13
2023-11-03T17:30:57.944Z,88.33
2023-11-03T17:33:24.964Z,88.77
2023-11-03T17:35:52.191Z,88.55
2023-11-03T17:38:18.872Z,88.44
2023-11-03T17:40:45.716Z,88.55
2023-11-03T17:43:13.093Z,88.48
2023-11-03T17:45:42.138Z,88.34
2023-11-03T17:48:09.634Z,88.20
2023-11-03T17:50:36.938Z,88.54
2023-11-03T17:53:03.561Z,88.51
2023-11-03T17:55:31.317Z,87.94
2023-11-03T17:57:58.202Z,87.63
2023-11-03T18:00:25.338Z,87.77
2023-11-03T18:02:53.694Z,87.78
2023-11-03T18:05:20.627Z,86.83
2023-11-03T18:07:47.716Z,84.64
2023-11-03T18:10:15.674Z,83.31
2023-11-03T18:12:42.779Z,82.04
2023-11-03T18:15:11.362Z,80.88
2023-11-03T18:17:39.166Z,79.74
2023-11-03T18:20:09.792Z,79.27
2023-11-03T18:22:36.830Z,79.03
2023-11-03T18:25:04.185Z,79.02
2023-11-03T18:27:30.915Z,78.47
2023-11-03T18:29:57.579Z,78.44
2023-11-03T18:32:24.319Z,78.40
2023-11-03T18:34:51.030Z,77.00
2023-11-03T18:37:17.857Z,75.08
2023-11-03T18:39:44.855Z,75.03
2023-11-03T18:42:12.017Z,74.56
2023-11-03T18:44:39.777Z,74.14
2023-11-03T18:47:06.759Z,73.72
2023-11-03T18:52:03.044Z,72.11
2023-11-03T18:58:14.876Z,72.56
2023-11-03T19:04:22.207Z,72.06
2023-11-03T19:06:47.803Z,71.98
2023-11-03T19:07:52.840Z,71.67
2023-11-03T19:10:21.839Z,71.27
2023-11-03T19:12:48.617Z,71.05
2023-11-03T19:15:15.587Z,71.09
2023-11-03T19:17:42.436Z,70.80
2023-11-03T19:20:10.254Z,70.50
2023-11-03T19:22:38.308Z,70.41
2023-11-03T19:25:07.726Z,70.26
2023-11-03T19:27:35.404Z,69.85
2023-11-03T19:30:02.639Z,69.66
2023-11-03T19:32:30.407Z,69.59
2023-11-03T19:34:58.169Z,69.36
2023-11-03T19:37:26.415Z,69.60
2023-11-03T19:39:54.001Z,69.87
2023-11-03T19:42:20.868Z,70.12
2023-11-03T19:44:50.869Z,70.09
2023-11-03T19:47:18.214Z,70.22
2023-11-03T19:49:45.443Z,70.44
2023-11-03T19:52:12.538Z,70.37
2023-11-03T19:54:40.267Z,70.45
2023-11-03T19:57:07.408Z,70.51
2023-11-03T19:59:34.189Z,70.53
2023-11-03T20:02:01.756Z,70.52
2023-11-03T20:04:28.533Z,70.70
2023-11-03T20:06:57.560Z,70.45
2023-11-03T20:09:24.546Z,70.45
2023-11-03T20:11:51.543Z,70.36
2023-11-03T20:14:18.503Z,70.27
2023-11-03T20:16:45.404Z,70.15
2023-11-03T20:19:14.679Z,70.22
2023-11-03T20:21:41.901Z,70.27
2023-11-03T20:24:09.585Z,70.38
2023-11-03T20:26:36.767Z,70.46
2023-11-03T20:29:03.546Z,70.38
2023-11-03T20:31:30.307Z,70.22
2023-11-03T20:33:57.094Z,70.00
2023-11-03T20:36:24.338Z,70.29
2023-11-03T20:38:51.159Z,70.23
2023-11-03T20:41:18.238Z,70.35
2023-11-03T20:43:44.948Z,70.20
2023-11-03T20:46:14.380Z,69.82
2023-11-03T20:48:41.486Z,69.57
2023-11-03T20:51:09.088Z,69.47
2023-11-03T20:53:36.977Z,69.52
2023-11-03T20:56:04.856Z,69.21
2023-11-03T20:58:31.612Z,69.22
2023-11-03T21:00:58.360Z,69.34
2023-11-03T21:03:25.398Z,69.38
2023-11-03T21:05:52.536Z,69.46
2023-11-03T21:08:19.302Z,69.44
2023-11-03T21:10:46.139Z,69.64
2023-11-03T21:13:12.786Z,69.76
2023-11-03T21:15:39.579Z,69.83
2023-11-03T21:18:06.930Z,70.05
2023-11-03T21:20:33.952Z,70.23
2023-11-03T21:23:00.827Z,70.48
2023-11-03T21:25:27.440Z,70.60
2023-11-03T21:27:55.684Z,70.82
2023-11-03T21:30:22.424Z,70.87
2023-11-03T21:32:50.348Z,70.99
2023-11-03T21:35:17.152Z,71.13
2023-11-03T21:37:43.937Z,71.06
2023-11-03T21:40:11.264Z,71.10
2023-11-03T21:42:37.883Z,71.22
2023-11-03T21:45:06.627Z,71.35
2023-11-03T21:47:34.883Z,71.40
2023-11-03T21:50:01.688Z,71.49
2023-11-03T21:52:28.537Z,71.33
2023-11-03T21:54:55.615Z,71.21
2023-11-03T21:57:22.373Z,71.05
2023-11-03T21:59:49.504Z,70.83
2023-11-03T22:02:16.156Z,70.33
2023-11-03T22:04:43.016Z,70.25
2023-11-03T22:07:11.295Z,70.22
2023-11-03T22:09:38.063Z,70.27
2023-11-03T22:12:04.956Z,70.48
2023-11-03T22:14:32.043Z,70.51
2023-11-03T22:16:58.713Z,70.42
2023-11-03T22:19:25.938Z,70.38
2023-11-03T22:21:52.842Z,70.39
2023-11-03T22:24:19.508Z,70.24
2023-11-03T22:26:47.833Z,70.08
2023-11-03T22:29:16.415Z,69.96
2023-11-03T22:31:45.119Z,69.85
2023-11-03T22:34:12.059Z,69.75
2023-11-03T22:36:38.874Z,69.71
2023-11-03T22:39:06.271Z,69.77
2023-11-03T22:41:33.222Z,69.76
2023-11-03T22:43:59.861Z,69.69
2023-11-03T22:46:27.147Z,69.88
2023-11-03T22:48:54.144Z,69.82
2023-11-03T22:51:20.972Z,69.89
2023-11-03T22:53:48.067Z,70.05
2023-11-03T22:56:22.234Z,70.18
2023-11-03T22:58:49.652Z,70.54
2023-11-03T23:01:16.850Z,70.53
2023-11-03T23:03:43.511Z,70.34
2023-11-03T23:06:12.898Z,70.63
2023-11-03T23:08:40.270Z,70.73
2023-11-03T23:11:07.509Z,70.89
2023-11-03T23:13:34.363Z,70.89
2023-11-03T23:16:01.056Z,70.88
2023-11-03T23:18:27.965Z,70.95
2023-11-03T23:20:54.801Z,71.15
2023-11-03T23:23:21.582Z,71.00
2023-11-03T23:25:50.133Z,71.23
2023-11-03T23:28:16.874Z,71.29
2023-11-03T23:30:44.098Z,71.18
2023-11-03T23:33:11.178Z,71.31
2023-11-03T23:35:37.936Z,71.37
2023-11-03T23:38:05.103Z,71.30
2023-11-03T23:40:31.764Z,71.11
2023-11-03T23:42:58.594Z,71.13
2023-11-03T23:45:25.689Z,71.14
2023-11-03T23:47:52.582Z,71.14
2023-11-03T23:50:19.352Z,71.18
2023-11-03T23:52:46.092Z,71.06
2023-11-03T23:55:12.959Z,71.05
2023-11-03T23:57:39.978Z,71.03
